Time;durP1;ratioP1;P1;durP2;ratioP2;P2;SDS_P1;SDS_P2;PMS_P1;PMS_P2;Temp;Humidity;BMP_temperature;BMP_pressure;BME280_temperature;BME280_humidity;BME280_pressure;Samples;Min_cycle;Max_cycle;Signal;HPM_P1;HPM_P2
2022/01/24 00:01:04;;;;;;;8.20;5.47;;;6.00;99.90;;;;;;5143184;27;20042;-75
2022/01/24 00:03:30;;;;;;;8.20;5.05;;;6.50;99.90;;;;;;5137523;27;20135;-74
2022/01/24 00:05:55;;;;;;;8.50;5.38;;;5.90;99.90;;;;;;5138402;27;20035;-74
2022/01/24 00:08:21;;;;;;;8.07;4.87;;;5.90;99.90;;;;;;5109749;27;20055;-75
2022/01/24 00:10:48;;;;;;;9.23;4.95;;;5.90;99.90;;;;;;5127199;27;20050;-75
2022/01/24 00:16:58;;;;;;;8.68;5.32;;;6.20;99.90;;;;;;5141587;27;20035;-74
2022/01/24 00:26:53;;;;;;;9.07;5.13;;;6.10;99.90;;;;;;5142635;27;20058;-75
2022/01/24 00:29:20;;;;;;;;;;;5.90;99.90;;;;;;5124625;27;20104;-75
2022/01/24 00:31:46;;;;;;;7.38;4.95;;;5.90;99.90;;;;;;5150113;27;19980;-74
2022/01/24 00:34:12;;;;;;;;;;;6.30;99.90;;;;;;5143283;27;20386;-74
2022/01/24 00:36:39;;;;;;;7.43;4.93;;;5.80;99.90;;;;;;5120658;27;19923;-76
2022/01/24 00:39:05;;;;;;;;;;;5.80;99.90;;;;;;5116998;27;20035;-73
2022/01/24 00:41:40;;;;;;;6.60;4.60;;;5.80;99.90;;;;;;5124621;27;19954;-73
2022/01/24 00:46:49;;;;;;;7.55;4.93;;;5.80;99.90;;;;;;5142641;27;20035;-74
2022/01/24 00:49:43;;;;;;;7.85;4.80;;;5.90;99.90;;;;;;5121440;27;20077;-73
2022/01/24 00:54:54;;;;;;;6.68;4.65;;;5.80;99.90;;;;;;5140238;27;20047;-75
2022/01/24 00:57:21;;;;;;;6.22;4.40;;;6.30;99.90;;;;;;5145094;27;20470;-76
2022/01/24 00:59:50;;;;;;;8.57;4.97;;;6.20;99.90;;;;;;5142233;27;20035;-76
2022/01/24 01:02:17;;;;;;;6.85;4.40;;;5.80;99.90;;;;;;5145267;27;20034;-76
2022/01/24 01:07:24;;;;;;;6.90;4.57;;;5.80;99.90;;;;;;5144880;27;20042;-76
2022/01/24 01:18:15;;;;;;;6.32;4.60;;;5.80;99.90;;;;;;5124859;27;20069;-75
2022/01/24 01:23:30;;;;;;;6.30;4.55;;;6.90;99.90;;;;;;5138854;27;20079;-76
2022/01/24 01:25:58;;;;;;;7.13;4.43;;;5.70;99.90;;;;;;5140763;27;20074;-74
2022/01/24 01:28:26;;;;;;;6.47;4.53;;;5.70;99.90;;;;;;5146962;27;20113;-74
2022/01/24 01:30:56;;;;;;;7.05;4.80;;;5.60;99.90;;;;;;5127505;27;20054;-74
2022/01/24 01:33:34;;;;;;;6.72;4.50;;;5.70;99.90;;;;;;5144925;27;20046;-73
2022/01/24 01:36:10;;;;;;;6.82;4.43;;;6.20;99.90;;;;;;5144456;27;20043;-74
2022/01/24 01:55:37;;;;;;;7.30;4.82;;;5.60;99.90;;;;;;5122850;27;20074;-74
2022/01/24 01:58:08;;;;;;;7.95;4.38;;;5.50;99.90;;;;;;5118210;27;20039;-73
2022/01/24 02:00:37;;;;;;;7.25;4.38;;;5.60;99.90;;;;;;5122690;27;20027;-74
2022/01/24 02:03:03;;;;;;;7.35;4.32;;;5.50;99.90;;;;;;5145988;27;20053;-75
2022/01/24 02:05:29;;;;;;;6.22;4.50;;;7.00;99.90;;;;;;5139946;27;20039;-74
2022/01/24 02:07:55;;;;;;;7.30;4.82;;;5.50;99.90;;;;;;5119412;27;20038;-73
2022/01/24 02:10:23;;;;;;;7.72;4.88;;;5.50;99.90;;;;;;5124271;27;20083;-74
2022/01/24 02:12:51;;;;;;;6.50;4.65;;;5.50;99.90;;;;;;5118392;27;20039;-74
2022/01/24 02:21:25;;;;;;;6.38;4.57;;;5.50;99.90;;;;;;5099427;27;20034;-73
2022/01/24 02:23:51;;;;;;;7.22;4.85;;;5.90;99.90;;;;;;5142839;27;20486;-74
2022/01/24 02:26:20;;;;;;;7.13;4.70;;;5.90;99.90;;;;;;5125701;27;20078;-74
2022/01/24 02:31:50;;;;;;;7.38;4.80;;;5.40;99.90;;;;;;5117500;27;20053;-73
2022/01/24 02:34:25;;;;;;;8.25;4.93;;;5.90;99.90;;;;;;5130744;27;20150;-73
2022/01/24 02:36:53;;;;;;;8.05;4.80;;;6.20;99.90;;;;;;5112952;27;20038;-73
2022/01/24 02:50:25;;;;;;;7.43;4.90;;;5.50;99.90;;;;;;5121015;27;20064;-73
2022/01/24 02:52:51;;;;;;;7.03;4.50;;;5.40;99.90;;;;;;5126326;27;20096;-73
2022/01/24 02:55:17;;;;;;;7.80;4.90;;;5.60;99.90;;;;;;5097740;27;20031;-73
2022/01/24 02:57:43;;;;;;;7.13;5.10;;;5.30;99.90;;;;;;5139742;27;20054;-73
2022/01/24 03:00:09;;;;;;;7.35;4.93;;;5.40;99.90;;;;;;5141608;27;20031;-74
2022/01/24 03:02:35;;;;;;;5.80;3.97;;;5.30;99.90;;;;;;5129431;27;20048;-73
2022/01/24 03:05:01;;;;;;;7.20;5.22;;;5.80;99.90;;;;;;5123370;27;20051;-73
2022/01/24 03:07:27;;;;;;;6.55;4.72;;;7.00;99.90;;;;;;5119695;27;20068;-74
2022/01/24 03:09:55;;;;;;;7.47;4.82;;;5.30;99.90;;;;;;5132314;27;20107;-75
2022/01/24 03:12:59;;;;;;;7.32;4.93;;;5.30;99.90;;;;;;5147122;27;20038;-75
2022/01/24 03:15:13;;;;;;;8.63;5.18;;;5.40;99.90;;;;;;5127320;27;20051;-75
2022/01/24 03:17:38;;;;;;;7.70;5.10;;;4.50;99.90;;;;;;5133914;27;20046;-75
2022/01/24 03:20:05;;;;;;;7.27;5.03;;;5.30;99.90;;;;;;5126880;27;20068;-75
2022/01/24 03:22:32;;;;;;;8.38;5.28;;;5.30;99.90;;;;;;5146924;27;20272;-75
2022/01/24 03:24:58;;;;;;;6.90;4.88;;;5.40;99.90;;;;;;5106067;27;20043;-75
2022/01/24 03:27:24;;;;;;;8.57;5.60;;;5.30;99.90;;;;;;5138979;27;20031;-75
2022/01/24 03:29:50;;;;;;;8.00;4.78;;;5.30;99.90;;;;;;5147488;27;20065;-75
2022/01/24 03:32:16;;;;;;;8.02;5.55;;;5.20;99.90;;;;;;5127088;27;20054;-75
2022/01/24 03:34:42;;;;;;;8.85;5.85;;;5.20;99.90;;;;;;5138982;27;20099;-75
2022/01/24 03:37:08;;;;;;;;;;;5.30;99.90;;;;;;5106007;27;20038;-76
2022/01/24 03:39:34;;;;;;;8.55;5.55;;;5.20;99.90;;;;;;5121652;27;20354;-76
2022/01/24 03:42:00;;;;;;;8.77;5.87;;;5.20;99.90;;;;;;5142701;27;20042;-75
2022/01/24 03:44:27;;;;;;;;;;;6.30;99.90;;;;;;5121517;27;20287;-76
2022/01/24 03:52:18;;;;;;;8.77;5.68;;;5.20;99.90;;;;;;5140856;27;20095;-73
2022/01/24 03:54:45;;;;;;;9.68;6.20;;;5.20;99.90;;;;;;5142005;27;20043;-73
2022/01/24 03:57:11;;;;;;;;;;;5.20;99.90;;;;;;5113266;27;20039;-73
2022/01/24 03:59:37;;;;;;;8.70;5.60;;;5.20;99.90;;;;;;5127391;27;19915;-73
2022/01/24 04:02:04;;;;;;;8.25;5.72;;;5.20;99.90;;;;;;5143192;27;20382;-74
2022/01/24 04:04:29;;;;;;;;;;;6.70;99.90;;;;;;5143783;27;20039;-74
2022/01/24 04:06:55;;;;;;;10.25;6.45;;;5.20;99.90;;;;;;5145474;27;19923;-74
2022/01/24 04:09:21;;;;;;;9.93;6.18;;;6.60;99.90;;;;;;5143259;27;20103;-73
2022/01/24 04:11:51;;;;;;;9.95;7.00;;;5.20;99.90;;;;;;5120147;27;20027;-73
2022/01/24 04:22:15;;;;;;;12.18;7.18;;;6.00;99.90;;;;;;5135689;27;20119;-73
2022/01/24 04:24:42;;;;;;;9.90;7.25;;;5.20;99.90;;;;;;5129989;27;20126;-73
2022/01/24 04:27:09;;;;;;;11.95;7.32;;;5.20;99.90;;;;;;5136589;27;20106;-73
2022/01/24 04:29:40;;;;;;;13.10;7.05;;;5.40;99.90;;;;;;5150404;27;20451;-73
2022/01/24 04:32:06;;;;;;;11.18;7.32;;;5.10;99.90;;;;;;5123329;27;20039;-73
2022/01/24 04:34:32;;;;;;;11.48;7.20;;;5.20;99.90;;;;;;5118997;27;20039;-73
2022/01/24 04:36:57;;;;;;;11.73;7.35;;;5.10;99.90;;;;;;5140250;27;20355;-74
2022/01/24 04:39:23;;;;;;;12.93;7.93;;;5.20;99.90;;;;;;5148221;27;20027;-73
2022/01/24 04:41:53;;;;;;;13.02;7.90;;;6.00;99.90;;;;;;5142253;27;20462;-73
2022/01/24 04:52:44;;;;;;;11.95;7.60;;;5.20;99.90;;;;;;5148177;27;20046;-74
2022/01/24 04:55:10;;;;;;;13.98;8.00;;;5.30;99.90;;;;;;5141098;27;20425;-73
2022/01/24 04:57:36;;;;;;;14.60;8.57;;;5.10;99.90;;;;;;5142540;27;20118;-73
2022/01/24 05:00:06;;;;;;;14.57;8.40;;;5.10;99.90;;;;;;5143189;27;20152;-73
2022/01/24 05:02:31;;;;;;;15.25;8.45;;;5.10;99.90;;;;;;5121271;27;20035;-73
2022/01/24 05:04:57;;;;;;;13.03;8.43;;;5.10;99.90;;;;;;5105691;27;20041;-73
2022/01/24 05:07:23;;;;;;;15.57;8.98;;;6.10;99.90;;;;;;5137865;27;20295;-73
2022/01/24 05:10:03;;;;;;;15.07;8.65;;;5.60;99.90;;;;;;5118776;27;20043;-73
2022/01/24 05:25:53;;;;;;;17.35;9.88;;;5.20;99.90;;;;;;5140981;27;20501;-73
2022/01/24 05:28:19;;;;;;;15.80;9.85;;;5.10;99.90;;;;;;5138036;27;20074;-74
2022/01/24 05:30:45;;;;;;;17.02;9.82;;;6.00;99.90;;;;;;5098573;27;20055;-74
2022/01/24 05:33:11;;;;;;;18.63;9.85;;;5.10;99.90;;;;;;5121632;27;20081;-74
2022/01/24 05:35:37;;;;;;;16.63;9.38;;;6.00;99.90;;;;;;5139383;27;20070;-74
2022/01/24 05:38:03;;;;;;;16.77;9.60;;;5.20;99.90;;;;;;5117847;27;20038;-73
2022/01/24 05:40:29;;;;;;;16.70;9.35;;;5.60;99.90;;;;;;5105639;27;20027;-73
2022/01/24 05:42:55;;;;;;;17.88;10.52;;;5.60;99.90;;;;;;5126337;27;20652;-72
2022/01/24 05:45:21;;;;;;;15.63;9.57;;;5.10;99.90;;;;;;5119601;27;20039;-73
2022/01/24 05:47:47;;;;;;;16.90;10.23;;;6.20;99.90;;;;;;5133744;27;20046;-73
2022/01/24 05:50:12;;;;;;;17.48;10.05;;;5.10;99.90;;;;;;5123098;27;20042;-73
2022/01/24 05:52:38;;;;;;;17.98;10.02;;;5.10;99.90;;;;;;5123086;27;20038;-73
2022/01/24 05:55:05;;;;;;;18.75;9.90;;;5.10;99.90;;;;;;5120089;27;20456;-72
2022/01/24 05:57:31;;;;;;;17.38;9.93;;;5.10;99.90;;;;;;5128315;27;20408;-72
2022/01/24 05:59:57;;;;;;;16.77;9.68;;;5.00;99.90;;;;;;5151885;27;20129;-73
2022/01/24 06:02:23;;;;;;;18.58;9.90;;;5.00;99.90;;;;;;5146175;27;20035;-72
2022/01/24 06:04:49;;;;;;;17.88;9.98;;;5.00;99.90;;;;;;5131185;27;20039;-73
2022/01/24 06:07:15;;;;;;;17.42;9.93;;;6.60;99.90;;;;;;5149297;27;20125;-73
2022/01/24 06:09:41;;;;;;;17.13;9.85;;;5.00;99.90;;;;;;5151703;27;20068;-73
2022/01/24 06:12:09;;;;;;;18.20;10.15;;;5.60;99.90;;;;;;5124366;27;20400;-72
2022/01/24 06:14:35;;;;;;;17.17;9.85;;;5.00;99.90;;;;;;5145334;27;20043;-73
2022/01/24 06:17:01;;;;;;;18.23;9.52;;;5.00;99.90;;;;;;5133320;27;20062;-73
2022/01/24 06:19:26;;;;;;;15.38;9.40;;;5.00;99.90;;;;;;5113216;27;20030;-73
2022/01/24 06:21:52;;;;;;;18.35;10.13;;;5.10;99.90;;;;;;5122579;27;20072;-72
2022/01/24 06:24:18;;;;;;;17.20;10.70;;;6.20;99.90;;;;;;5143687;27;20035;-73
2022/01/24 06:26:44;;;;;;;19.40;10.20;;;5.40;99.90;;;;;;5110789;27;20027;-73
2022/01/24 06:29:11;;;;;;;17.90;9.95;;;5.00;99.90;;;;;;5143208;27;20129;-73
2022/01/24 06:31:40;;;;;;;18.08;10.15;;;5.00;99.90;;;;;;5146113;27;20031;-73
2022/01/24 06:34:06;;;;;;;16.83;9.68;;;5.00;99.90;;;;;;5111959;28;20455;-73
2022/01/24 06:36:32;;;;;;;17.88;9.95;;;5.50;99.90;;;;;;5114924;27;20402;-73
2022/01/24 06:39:00;;;;;;;16.58;9.30;;;5.00;99.90;;;;;;5149943;27;20490;-73
2022/01/24 06:41:32;;;;;;;15.77;9.43;;;5.00;99.90;;;;;;5100183;27;20035;-73
2022/01/24 06:44:09;;;;;;;19.45;9.88;;;5.00;99.90;;;;;;5137533;27;20084;-75
2022/01/24 06:46:38;;;;;;;18.00;10.00;;;3.90;99.90;;;;;;5129684;27;20042;-79
2022/01/24 06:49:15;;;;;;;15.38;9.07;;;5.00;99.90;;;;;;5115928;27;20046;-78
2022/01/24 06:51:58;;;;;;;16.38;9.85;;;5.00;99.90;;;;;;5132961;27;20509;-74
2022/01/24 06:54:34;;;;;;;17.92;9.82;;;5.00;99.90;;;;;;5099000;27;20398;-76
2022/01/24 06:57:00;;;;;;;14.93;9.20;;;5.20;99.90;;;;;;5133637;27;20499;-74
2022/01/24 06:59:26;;;;;;;14.55;8.80;;;5.10;99.90;;;;;;5133287;27;20738;-74
2022/01/24 07:01:52;;;;;;;18.85;9.57;;;5.00;99.90;;;;;;5138997;27;20050;-74
2022/01/24 07:04:18;;;;;;;15.48;9.52;;;5.00;99.90;;;;;;5118214;27;20031;-74
2022/01/24 07:06:43;;;;;;;13.68;8.32;;;6.30;99.90;;;;;;5144884;27;20054;-74
2022/01/24 07:09:09;;;;;;;16.73;9.07;;;5.00;99.90;;;;;;5130715;27;20066;-74
2022/01/24 07:11:35;;;;;;;17.33;9.25;;;6.30;99.90;;;;;;5134499;27;20031;-74
2022/01/24 07:14:07;;;;;;;15.03;8.87;;;5.10;99.90;;;;;;5145789;27;20042;-74
2022/01/24 07:16:50;;;;;;;18.60;9.77;;;5.00;99.90;;;;;;5142190;27;20384;-74
2022/01/24 07:19:16;;;;;;;15.45;9.18;;;5.00;99.90;;;;;;5120941;27;20028;-74
2022/01/24 07:21:42;;;;;;;20.30;10.23;;;4.90;99.90;;;;;;5120512;27;20035;-74
2022/01/24 07:24:07;;;;;;;15.82;9.57;;;6.50;99.90;;;;;;5147422;27;20382;-74
2022/01/24 07:26:33;;;;;;;14.38;7.90;;;5.60;99.90;;;;;;5139304;27;20042;-74
2022/01/24 07:28:59;;;;;;;15.98;9.18;;;5.20;99.90;;;;;;5118360;27;20054;-74
2022/01/24 07:31:25;;;;;;;13.75;8.25;;;5.00;99.90;;;;;;5149391;27;20039;-74
2022/01/24 07:33:51;;;;;;;16.88;9.23;;;5.00;99.90;;;;;;5118113;27;20039;-74
2022/01/24 07:36:17;;;;;;;16.60;9.25;;;5.00;99.90;;;;;;5118501;27;20106;-74
2022/01/24 07:38:43;;;;;;;16.60;9.63;;;5.00;99.90;;;;;;5141827;27;20034;-74
2022/01/24 07:41:09;;;;;;;16.92;9.07;;;5.00;99.90;;;;;;5145197;27;20084;-74
2022/01/24 07:43:35;;;;;;;14.50;8.93;;;5.00;99.90;;;;;;5115252;27;20106;-74
2022/01/24 07:46:01;;;;;;;15.93;9.18;;;5.00;99.90;;;;;;5137410;27;20059;-74
2022/01/24 07:48:26;;;;;;;16.27;9.43;;;6.30;99.90;;;;;;5134778;27;20171;-74
2022/01/24 07:50:52;;;;;;;16.38;8.88;;;5.70;99.90;;;;;;5148309;27;20039;-74
2022/01/24 07:53:19;;;;;;;16.58;9.40;;;5.00;99.90;;;;;;5143454;27;20047;-74
2022/01/24 07:55:45;;;;;;;16.98;9.02;;;5.00;99.90;;;;;;5115434;27;20069;-74
2022/01/24 07:58:11;;;;;;;15.57;9.50;;;5.50;99.90;;;;;;5145945;27;20030;-74
2022/01/24 08:00:39;;;;;;;14.52;8.88;;;4.90;99.90;;;;;;5154377;27;20031;-74
2022/01/24 08:03:06;;;;;;;15.10;8.75;;;4.90;99.90;;;;;;5138241;27;20039;-74
2022/01/24 08:05:33;;;;;;;16.67;9.57;;;4.90;99.90;;;;;;5106400;27;20382;-74
2022/01/24 08:07:58;;;;;;;;;;;4.90;99.90;;;;;;5154816;27;20426;-74
2022/01/24 08:10:24;;;;;;;16.83;8.82;;;4.90;99.90;;;;;;5134999;27;19994;-74
2022/01/24 08:12:50;;;;;;;15.68;9.68;;;5.40;99.90;;;;;;5115918;27;20414;-74
2022/01/24 08:15:16;;;;;;;14.95;8.90;;;4.90;99.90;;;;;;5150924;27;20035;-74
2022/01/24 08:17:43;;;;;;;;;;;5.30;99.90;;;;;;5154528;27;20747;-74
2022/01/24 08:20:10;;;;;;;15.68;8.95;;;5.40;99.90;;;;;;5133473;27;19922;-74
2022/01/24 08:22:36;;;;;;;16.80;9.07;;;4.90;99.90;;;;;;5137681;27;20042;-74
2022/01/24 08:25:04;;;;;;;19.20;9.30;;;5.00;99.90;;;;;;5151117;27;20042;-74
2022/01/24 08:27:34;;;;;;;15.65;9.30;;;4.90;99.90;;;;;;5115150;27;20715;-74
2022/01/24 08:30:04;;;;;;;16.65;9.50;;;5.00;99.90;;;;;;5153588;27;20103;-74
2022/01/24 08:32:30;;;;;;;16.75;9.30;;;5.00;99.90;;;;;;5153043;27;20390;-74
2022/01/24 08:34:56;;;;;;;15.95;9.13;;;5.00;99.90;;;;;;5127867;27;20046;-74
2022/01/24 08:37:22;;;;;;;16.25;8.98;;;5.20;99.90;;;;;;5122023;27;20486;-74
2022/01/24 08:39:48;;;;;;;16.10;9.05;;;5.00;99.90;;;;;;5114617;27;20035;-74
2022/01/24 08:42:34;;;;;;;15.60;9.00;;;6.10;99.90;;;;;;5129245;27;20059;-74
2022/01/24 08:47:35;;;;;;;18.27;9.75;;;5.00;99.90;;;;;;5134266;27;20561;-74
2022/01/24 08:50:01;;;;;;;16.45;9.48;;;5.10;99.90;;;;;;5137040;27;20042;-74
2022/01/24 08:52:27;;;;;;;;;;;5.10;99.90;;;;;;5153367;27;20063;-74
2022/01/24 08:54:54;;;;;;;15.63;9.18;;;5.70;99.90;;;;;;5137791;27;19966;-74
2022/01/24 08:57:25;;;;;;;15.52;9.00;;;5.10;99.90;;;;;;5137067;27;20035;-74
2022/01/24 08:59:54;;;;;;;16.75;9.60;;;5.70;99.90;;;;;;5119322;27;20503;-74
2022/01/24 09:02:21;;;;;;;16.77;9.13;;;5.10;99.90;;;;;;5138434;27;20035;-74
2022/01/24 09:04:46;;;;;;;15.23;9.35;;;5.10;99.90;;;;;;5127142;27;20104;-74
2022/01/24 09:07:15;;;;;;;16.98;9.73;;;5.10;99.90;;;;;;5152495;27;20043;-74
2022/01/24 09:09:41;;;;;;;14.90;9.15;;;5.60;99.90;;;;;;5152842;27;20070;-74
2022/01/24 09:12:11;;;;;;;14.68;9.20;;;5.40;99.90;;;;;;5134595;27;20039;-74
2022/01/24 09:14:39;;;;;;;16.30;9.82;;;5.20;99.90;;;;;;5127143;27;20122;-74
2022/01/24 09:17:06;;;;;;;15.88;9.77;;;5.40;99.90;;;;;;5138210;27;20036;-74
2022/01/24 09:19:31;;;;;;;16.65;10.40;;;5.40;99.90;;;;;;5147006;27;20092;-74
2022/01/24 09:21:57;;;;;;;15.70;9.98;;;5.20;99.90;;;;;;5151854;27;20038;-74
2022/01/24 09:24:23;;;;;;;16.55;9.55;;;5.20;99.90;;;;;;5146800;27;20118;-74
2022/01/24 09:26:49;;;;;;;16.73;9.73;;;5.30;99.90;;;;;;5148067;27;20097;-74
2022/01/24 09:29:15;;;;;;;17.58;9.90;;;5.30;99.90;;;;;;5141815;27;20047;-74
2022/01/24 09:31:41;;;;;;;18.48;10.35;;;5.70;99.90;;;;;;5117904;27;20112;-74
2022/01/24 09:34:06;;;;;;;17.27;10.25;;;5.30;99.90;;;;;;5152318;27;20047;-74
2022/01/24 09:36:32;;;;;;;17.17;10.25;;;5.60;99.90;;;;;;5133961;27;20281;-74
2022/01/24 09:38:58;;;;;;;20.23;10.90;;;5.30;99.90;;;;;;5125885;27;20042;-74
2022/01/24 09:41:24;;;;;;;19.33;10.85;;;5.40;99.90;;;;;;5141819;27;20106;-74
2022/01/24 09:43:49;;;;;;;19.13;10.93;;;5.30;99.90;;;;;;5152416;27;20511;-74
2022/01/24 09:46:15;;;;;;;22.15;11.85;;;6.00;99.90;;;;;;5146540;27;20115;-74
2022/01/24 09:48:42;;;;;;;19.80;11.68;;;5.30;99.90;;;;;;5130971;27;20510;-74
2022/01/24 09:51:08;;;;;;;;;;;5.30;99.90;;;;;;5150949;27;20039;-74
2022/01/24 09:53:34;;;;;;;20.50;11.82;;;5.40;99.90;;;;;;5147741;27;19919;-74
2022/01/24 09:56:03;;;;;;;26.13;14.13;;;4.80;99.90;;;;;;5131438;27;20031;-74
2022/01/24 09:58:31;;;;;;;27.50;15.20;;;6.60;99.90;;;;;;5122627;27;20039;-74
2022/01/24 10:00:58;;;;;;;28.02;14.45;;;5.70;99.90;;;;;;5115802;27;20035;-74
2022/01/24 10:03:25;;;;;;;29.65;15.55;;;5.50;99.90;;;;;;5146724;27;20046;-74
2022/01/24 10:05:54;;;;;;;30.25;15.95;;;5.60;99.90;;;;;;5135788;27;20572;-74
2022/01/24 10:08:23;;;;;;;28.38;15.50;;;5.60;99.90;;;;;;5126670;27;20043;-74
2022/01/24 10:10:52;;;;;;;28.23;15.57;;;6.00;99.90;;;;;;5134734;27;20096;-74
2022/01/24 10:16:25;;;;;;;29.42;15.32;;;5.50;99.90;;;;;;5131221;27;20042;-74
2022/01/24 10:19:06;;;;;;;26.48;14.70;;;5.50;99.90;;;;;;5112752;27;20037;-74
2022/01/24 10:21:44;;;;;;;25.50;14.15;;;5.50;99.90;;;;;;5107684;28;20513;-74
2022/01/24 10:24:37;;;;;;;31.77;15.45;;;5.80;99.90;;;;;;5131283;27;20502;-74
2022/01/24 10:27:15;;;;;;;29.75;14.60;;;5.60;99.90;;;;;;5145477;27;20043;-74
2022/01/24 10:29:56;;;;;;;28.63;15.52;;;4.90;99.90;;;;;;5142665;27;21129;-74
2022/01/24 10:32:36;;;;;;;28.05;15.27;;;5.60;99.90;;;;;;5126495;27;20100;-74
2022/01/24 10:35:22;;;;;;;31.42;15.52;;;5.70;99.90;;;;;;5146359;27;20089;-74
2022/01/24 10:37:51;;;;;;;32.00;16.30;;;5.60;99.90;;;;;;5130835;27;20085;-74
2022/01/24 10:43:24;;;;;;;30.00;15.70;;;5.60;99.90;;;;;;5149177;27;20047;-74
2022/01/24 10:45:53;;;;;;;29.75;14.57;;;5.60;99.90;;;;;;5148858;27;20031;-74
2022/01/24 10:48:42;;;;;;;29.73;15.55;;;5.70;99.90;;;;;;5140856;27;20037;-74
2022/01/24 10:51:08;;;;;;;28.10;14.20;;;5.70;99.90;;;;;;5114051;27;20110;-74
2022/01/24 10:53:39;;;;;;;27.20;14.10;;;5.60;99.90;;;;;;5136758;27;20122;-74
2022/01/24 10:56:39;;;;;;;30.52;14.98;;;5.80;99.90;;;;;;5143447;27;20778;-74
2022/01/24 10:59:11;;;;;;;28.65;14.77;;;5.60;99.90;;;;;;5131186;27;20462;-74
2022/01/24 11:01:38;;;;;;;30.45;14.63;;;5.80;99.90;;;;;;5148535;27;20061;-74
2022/01/24 11:04:07;;;;;;;31.08;16.15;;;5.60;99.90;;;;;;5130985;27;20043;-74
2022/01/24 11:06:42;;;;;;;30.75;15.55;;;5.60;99.90;;;;;;5148249;27;20042;-74
2022/01/24 11:09:24;;;;;;;35.90;16.65;;;5.60;99.90;;;;;;5114697;27;20145;-74
2022/01/24 11:12:12;;;;;;;33.15;17.63;;;5.70;99.90;;;;;;5142758;27;20027;-74
2022/01/24 11:14:41;;;;;;;38.63;18.33;;;5.70;99.90;;;;;;5147936;27;20118;-74
2022/01/24 11:17:09;;;;;;;37.80;18.50;;;6.20;99.90;;;;;;5135771;27;20043;-74
2022/01/24 11:19:43;;;;;;;36.83;18.73;;;5.70;99.90;;;;;;5120144;28;20035;-74
2022/01/24 11:22:20;;;;;;;41.80;19.27;;;5.70;99.90;;;;;;5109656;27;20055;-74
2022/01/24 11:24:56;;;;;;;;;;;5.70;99.90;;;;;;5131104;27;20035;-74
2022/01/24 11:27:23;;;;;;;41.80;19.52;;;5.70;99.90;;;;;;5140199;27;20285;-74
2022/01/24 11:29:53;;;;;;;;;;;5.70;99.90;;;;;;5147011;27;20051;-74
2022/01/24 11:32:38;;;;;;;41.10;18.75;;;5.70;99.90;;;;;;5154825;27;20016;-74
2022/01/24 11:35:06;;;;;;;41.88;20.88;;;6.60;99.90;;;;;;5154837;27;20130;-74
2022/01/24 11:37:41;;;;;;;41.60;19.67;;;5.80;99.90;;;;;;5135873;27;20037;-74
2022/01/24 11:40:17;;;;;;;37.58;19.40;;;5.80;99.90;;;;;;5138244;27;20432;-74
2022/01/24 11:42:46;;;;;;;43.25;21.48;;;5.70;99.90;;;;;;5135802;27;20118;-74
2022/01/24 11:45:18;;;;;;;45.50;21.77;;;6.70;99.90;;;;;;5154498;27;20436;-74
2022/01/24 11:47:46;;;;;;;41.70;21.35;;;6.50;99.90;;;;;;5118413;27;20043;-74
2022/01/24 11:50:24;;;;;;;46.90;22.60;;;5.80;99.90;;;;;;5098632;27;20074;-73
2022/01/24 11:52:54;;;;;;;44.08;21.85;;;5.80;99.90;;;;;;5150488;27;20051;-73
2022/01/24 11:55:38;;;;;;;45.10;21.40;;;5.80;99.90;;;;;;5097750;27;20039;-73
2022/01/24 11:58:07;;;;;;;46.10;22.58;;;5.80;99.90;;;;;;5130865;27;20039;-73
2022/01/24 12:00:39;;;;;;;43.60;22.15;;;5.60;99.90;;;;;;5141248;27;20411;-73
2022/01/24 12:03:23;;;;;;;44.45;22.40;;;5.80;99.90;;;;;;5150261;27;20424;-73
2022/01/24 12:05:53;;;;;;;45.28;22.75;;;5.80;99.90;;;;;;5114578;27;20039;-73
2022/01/24 12:08:33;;;;;;;44.70;21.95;;;5.90;99.90;;;;;;5148816;27;20027;-73
2022/01/24 12:11:19;;;;;;;38.13;19.98;;;5.90;99.90;;;;;;5153654;27;20035;-73
2022/01/24 12:13:53;;;;;;;41.00;21.02;;;5.80;99.90;;;;;;5145845;27;20038;-74
2022/01/24 12:16:35;;;;;;;43.53;21.13;;;6.10;99.90;;;;;;5136736;27;20035;-73
2022/01/24 12:19:02;;;;;;;41.15;20.48;;;5.70;99.90;;;;;;5146541;27;20222;-73
2022/01/24 12:21:30;;;;;;;43.50;21.33;;;5.70;99.90;;;;;;5130312;27;20102;-73
2022/01/24 12:24:02;;;;;;;43.60;20.80;;;5.90;99.90;;;;;;5140869;27;20043;-73
2022/01/24 12:26:39;;;;;;;44.80;21.08;;;5.80;99.90;;;;;;5138905;27;20037;-73
2022/01/24 12:29:17;;;;;;;42.70;21.08;;;5.80;99.90;;;;;;5143502;27;20043;-73
2022/01/24 12:31:47;;;;;;;42.63;22.30;;;5.80;99.90;;;;;;5131893;27;20058;-73
2022/01/24 12:34:18;;;;;;;44.28;21.95;;;5.80;99.90;;;;;;5145906;27;20043;-73
2022/01/24 12:36:50;;;;;;;45.00;22.90;;;6.40;99.90;;;;;;5132040;27;20057;-73
2022/01/24 12:39:48;;;;;;;49.60;23.55;;;5.80;99.90;;;;;;5114247;27;20027;-73
2022/01/24 12:42:58;;;;;;;47.63;23.38;;;5.80;99.90;;;;;;5146075;27;20139;-73
2022/01/24 12:48:18;;;;;;;47.87;23.17;;;5.80;99.90;;;;;;5137516;27;20042;-73
2022/01/24 12:50:46;;;;;;;47.92;22.95;;;5.80;99.90;;;;;;5141086;27;20729;-73
2022/01/24 12:53:14;;;;;;;46.83;23.17;;;5.70;99.90;;;;;;5132470;27;20091;-73
2022/01/24 12:55:41;;;;;;;47.00;23.52;;;5.40;99.90;;;;;;5152306;27;20039;-74
2022/01/24 12:58:07;;;;;;;48.55;22.98;;;5.90;99.90;;;;;;5137774;27;20043;-73
2022/01/24 13:00:33;;;;;;;47.05;23.67;;;5.90;99.90;;;;;;5106654;27;20031;-73
2022/01/24 13:02:59;;;;;;;48.72;23.50;;;6.20;99.90;;;;;;5131949;27;20076;-73
2022/01/24 13:05:28;;;;;;;53.92;24.67;;;6.60;99.90;;;;;;5113773;27;20535;-73
2022/01/24 13:07:58;;;;;;;50.00;24.92;;;5.40;99.90;;;;;;5134735;27;20043;-73
2022/01/24 13:10:29;;;;;;;51.85;24.42;;;5.80;99.90;;;;;;5128109;27;20114;-73
2022/01/24 13:13:15;;;;;;;46.20;22.42;;;5.80;99.90;;;;;;5144684;27;20039;-73
2022/01/24 13:22:00;;;;;;;47.35;23.80;;;5.10;99.90;;;;;;5047678;28;20045;-73
2022/01/24 13:24:25;;;;;;;45.85;23.75;;;5.70;99.90;;;;;;5117617;27;20099;-73
2022/01/24 13:27:02;;;;;;;46.47;22.37;;;5.80;99.90;;;;;;5133608;27;20042;-73
2022/01/24 13:29:40;;;;;;;41.20;20.77;;;6.50;99.90;;;;;;5144420;27;20267;-73
2022/01/24 13:32:06;;;;;;;44.72;20.92;;;6.40;99.90;;;;;;5152536;27;20505;-73
2022/01/24 13:34:31;;;;;;;38.05;19.23;;;5.80;99.90;;;;;;5133788;27;20046;-73
2022/01/24 13:37:07;;;;;;;39.10;19.42;;;5.80;99.90;;;;;;5144786;27;20487;-73
2022/01/24 13:39:33;;;;;;;34.33;18.10;;;5.80;99.90;;;;;;5133081;27;20031;-73
2022/01/24 13:41:58;;;;;;;33.88;18.25;;;5.80;99.90;;;;;;5152140;27;20038;-73
2022/01/24 13:44:24;;;;;;;37.53;19.20;;;5.70;99.90;;;;;;5151187;27;20034;-73
2022/01/24 13:46:50;;;;;;;37.92;18.67;;;5.70;99.90;;;;;;5112456;27;20035;-73
2022/01/24 13:49:16;;;;;;;35.65;18.42;;;5.70;99.90;;;;;;5141227;27;20625;-73
2022/01/24 13:51:46;;;;;;;37.58;18.88;;;5.70;99.90;;;;;;5148102;27;20374;-73
2022/01/24 13:54:34;;;;;;;35.47;18.27;;;5.60;99.90;;;;;;5134183;27;20074;-73
2022/01/24 13:57:07;;;;;;;36.42;18.08;;;5.60;99.90;;;;;;5141915;27;20035;-73
2022/01/24 13:59:35;;;;;;;36.80;18.83;;;5.60;99.90;;;;;;5097105;27;20071;-73
2022/01/24 14:02:02;;;;;;;36.50;18.80;;;6.50;99.90;;;;;;5127142;27;20165;-73
2022/01/24 14:04:30;;;;;;;38.67;19.00;;;5.60;99.90;;;;;;5136577;27;20035;-73
2022/01/24 14:06:58;;;;;;;34.88;17.17;;;6.60;99.90;;;;;;5141378;27;20047;-73
2022/01/24 14:09:45;;;;;;;33.05;17.70;;;5.70;99.90;;;;;;5142086;27;20035;-73
2022/01/24 14:12:17;;;;;;;34.60;17.45;;;5.70;99.90;;;;;;5131160;27;20047;-73
2022/01/24 14:14:52;;;;;;;37.50;18.10;;;5.70;99.90;;;;;;5130719;27;20522;-73
2022/01/24 14:17:36;;;;;;;39.30;18.40;;;5.70;99.90;;;;;;5139295;27;20355;-73
2022/01/24 14:20:09;;;;;;;35.33;17.52;;;7.20;99.90;;;;;;5116594;28;20027;-73
2022/01/24 14:22:36;;;;;;;35.63;18.42;;;5.70;99.90;;;;;;5138759;27;20035;-73
2022/01/24 14:25:03;;;;;;;34.97;17.20;;;6.20;99.90;;;;;;5151327;27;20098;-73
2022/01/24 14:28:07;;;;;;;33.85;17.67;;;5.60;99.90;;;;;;5146320;27;20042;-73
2022/01/24 14:30:38;;;;;;;35.22;18.40;;;5.60;99.90;;;;;;5096318;27;20056;-74
2022/01/24 14:33:13;;;;;;;31.85;16.73;;;5.60;99.90;;;;;;5151420;27;20046;-74
2022/01/24 14:35:44;;;;;;;29.77;15.82;;;5.60;99.90;;;;;;5151590;27;20549;-74
2022/01/24 14:38:10;;;;;;;34.60;17.25;;;5.60;99.90;;;;;;5102181;28;20066;-74
2022/01/24 14:40:45;;;;;;;30.25;15.75;;;5.50;99.90;;;;;;5117447;28;20070;-74
2022/01/24 14:45:58;;;;;;;31.55;16.48;;;5.60;99.90;;;;;;5130106;27;20050;-74
2022/01/24 14:48:24;;;;;;;30.33;16.33;;;5.50;99.90;;;;;;5125137;27;20347;-74
2022/01/24 14:50:50;;;;;;;29.00;16.00;;;5.50;99.90;;;;;;5150881;27;20067;-74
2022/01/24 14:53:16;;;;;;;36.03;17.48;;;5.50;99.90;;;;;;5142771;27;20042;-74
2022/01/24 14:55:42;;;;;;;34.15;17.38;;;5.50;99.90;;;;;;5134505;27;20030;-73
2022/01/24 14:58:08;;;;;;;32.20;18.60;;;5.50;99.90;;;;;;5143067;27;20103;-74
2022/01/24 15:00:34;;;;;;;38.30;19.05;;;6.00;99.90;;;;;;5130712;27;20057;-74
2022/01/24 15:03:00;;;;;;;38.42;18.60;;;5.50;99.90;;;;;;5144496;27;20454;-74